createdAt,value
2023-11-24T00:01:02.445Z,5.50
2023-11-24T00:03:14.121Z,6.20
2023-11-24T00:15:46.081Z,5.50
2023-11-24T00:17:51.301Z,5.50
2023-11-24T00:19:53.999Z,6.00
2023-11-24T00:21:56.200Z,5.80
2023-11-24T00:23:58.953Z,5.40
2023-11-24T00:26:07.187Z,5.50
2023-11-24T00:34:20.756Z,5.20
2023-11-24T00:36:25.912Z,5.10
2023-11-24T00:38:31.182Z,5.50
2023-11-24T00:40:33.609Z,5.40
2023-11-24T00:42:36.915Z,5.70
2023-11-24T00:46:47.852Z,5.20
2023-11-24T00:48:54.028Z,5.10
2023-11-24T00:53:04.071Z,5.10
2023-11-24T00:55:09.456Z,5.70
2023-11-24T00:57:23.831Z,5.60
2023-11-24T00:59:28.896Z,5.40
2023-11-24T01:05:37.780Z,5.30
2023-11-24T01:11:46.859Z,5.00
2023-11-24T01:15:52.398Z,5.50
2023-11-24T01:19:58.286Z,5.30
2023-11-24T01:24:04.056Z,5.30
2023-11-24T01:30:14.404Z,4.90
2023-11-24T01:32:16.627Z,4.80
2023-11-24T01:34:19.286Z,5.30
2023-11-24T01:36:21.831Z,5.20
2023-11-24T01:40:27.625Z,5.30
2023-11-24T01:42:29.844Z,4.80
2023-11-24T01:46:35.335Z,5.40
2023-11-24T01:50:41.991Z,5.00
2023-11-24T01:52:44.907Z,4.80
2023-11-24T01:54:48.623Z,5.20
2023-11-24T01:56:51.811Z,5.10
2023-11-24T02:05:03.177Z,5.30
2023-11-24T02:11:12.932Z,4.80
2023-11-24T02:13:15.542Z,4.80
2023-11-24T02:17:20.927Z,4.60
2023-11-24T02:19:23.388Z,4.60
2023-11-24T02:21:25.899Z,5.10
2023-11-24T02:23:28.643Z,4.70
2023-11-24T02:25:31.363Z,5.20
2023-11-24T02:29:36.435Z,4.90
2023-11-24T02:35:44.906Z,4.70
2023-11-24T02:37:47.672Z,4.60
2023-11-24T02:39:49.830Z,4.90
2023-11-24T02:41:52.631Z,5.10
2023-11-24T02:45:58.281Z,5.00
2023-11-24T02:48:00.509Z,4.90
2023-11-24T02:52:07.044Z,4.60
2023-11-24T03:00:19.620Z,4.50
2023-11-24T03:02:22.554Z,5.00
2023-11-24T03:08:30.848Z,5.00
2023-11-24T03:10:33.348Z,5.10
2023-11-24T03:12:35.737Z,4.70
2023-11-24T03:14:39.614Z,4.90
2023-11-24T03:22:50.147Z,4.90
2023-11-24T03:26:55.377Z,5.00
2023-11-24T03:31:01.201Z,4.40
2023-11-24T03:35:07.494Z,4.40
2023-11-24T03:37:09.739Z,4.30
2023-11-24T03:41:17.922Z,4.30
2023-11-24T03:43:20.382Z,4.00
2023-11-24T03:47:25.425Z,4.70
2023-11-24T03:49:27.621Z,4.20
2023-11-24T03:53:32.904Z,4.40
2023-11-24T03:59:43.694Z,4.30
2023-11-24T04:03:48.871Z,4.20
2023-11-24T04:05:51.176Z,4.10
2023-11-24T04:09:56.532Z,4.60
2023-11-24T04:14:01.782Z,4.50
2023-11-24T04:16:05.680Z,4.50
2023-11-24T04:20:11.272Z,4.70
2023-11-24T04:24:16.496Z,4.60
2023-11-24T04:28:22.134Z,4.60
2023-11-24T04:30:24.294Z,4.10
2023-11-24T04:34:29.631Z,4.30
2023-11-24T04:36:32.261Z,4.70
2023-11-24T04:38:34.823Z,4.60
2023-11-24T04:42:40.243Z,4.30
2023-11-24T04:44:42.803Z,4.80
2023-11-24T04:52:54.857Z,4.60
2023-11-24T05:01:07.209Z,4.50
2023-11-24T05:03:09.529Z,4.30
2023-11-24T05:11:24.400Z,4.70
2023-11-24T05:15:29.431Z,4.80
2023-11-24T05:19:34.639Z,4.50
2023-11-24T05:21:39.975Z,4.40
2023-11-24T05:25:46.593Z,4.20
2023-11-24T05:27:49.536Z,4.70
2023-11-24T05:29:52.160Z,4.20
2023-11-24T05:31:54.446Z,5.00
2023-11-24T05:33:57.453Z,4.40
2023-11-24T05:35:59.821Z,4.60
2023-11-24T05:40:09.122Z,2.80
2023-11-24T05:42:11.843Z,4.30
2023-11-24T05:44:16.813Z,4.20
2023-11-24T05:46:19.965Z,4.50
2023-11-24T05:48:22.590Z,4.70
2023-11-24T05:50:25.419Z,4.30
2023-11-24T05:54:33.523Z,3.90
2023-11-24T05:56:35.775Z,4.00
2023-11-24T06:00:41.751Z,3.90
2023-11-24T06:04:50.819Z,4.60
2023-11-24T06:10:59.152Z,4.40
2023-11-24T06:19:13.609Z,4.60
2023-11-24T06:27:25.456Z,4.60
2023-11-24T06:31:31.078Z,4.50
2023-11-24T06:37:42.176Z,4.20
2023-11-24T06:41:49.420Z,4.30
2023-11-24T06:43:52.250Z,4.20
2023-11-24T06:45:54.372Z,4.20
2023-11-24T06:47:57.228Z,4.00
2023-11-24T06:50:00.520Z,4.20
2023-11-24T06:52:03.275Z,4.10
2023-11-24T06:54:07.064Z,4.10
2023-11-24T06:58:12.873Z,4.30
2023-11-24T07:00:19.375Z,5.10
2023-11-24T07:02:21.945Z,5.00
2023-11-24T07:04:24.833Z,4.90
2023-11-24T07:06:27.184Z,5.40
2023-11-24T07:08:29.647Z,5.90
2023-11-24T07:10:31.968Z,6.40
2023-11-24T07:12:35.218Z,6.60
2023-11-24T07:14:37.344Z,6.50
2023-11-24T07:16:40.024Z,5.90
2023-11-24T07:18:45.413Z,6.60
2023-11-24T07:20:50.322Z,6.50
2023-11-24T07:22:53.049Z,6.30
2023-11-24T07:24:56.694Z,5.80
2023-11-24T07:27:00.909Z,5.90
2023-11-24T07:29:04.831Z,5.50
2023-11-24T07:33:12.115Z,6.30
2023-11-24T07:35:15.726Z,6.10
2023-11-24T07:37:18.604Z,6.10
2023-11-24T07:39:22.136Z,6.20
2023-11-24T07:41:24.620Z,6.20
2023-11-24T07:43:26.832Z,8.50
2023-11-24T07:45:29.416Z,10.40
2023-11-24T07:47:31.892Z,10.10
2023-11-24T07:49:34.994Z,11.30
2023-11-24T07:51:37.217Z,9.60
2023-11-24T07:53:39.885Z,10.00
2023-11-24T07:55:42.962Z,9.80
2023-11-24T07:57:45.573Z,8.80
2023-11-24T07:59:47.985Z,8.50
2023-11-24T08:01:50.694Z,8.10
2023-11-24T08:03:53.245Z,7.50
2023-11-24T08:05:57.274Z,6.90
2023-11-24T08:10:05.881Z,6.60
2023-11-24T08:12:12.333Z,6.50
2023-11-24T08:14:16.255Z,6.00
2023-11-24T08:16:18.541Z,6.30
2023-11-24T08:20:25.394Z,6.00
2023-11-24T08:22:29.807Z,5.90
2023-11-24T08:24:35.075Z,5.90
2023-11-24T08:26:37.779Z,5.60
2023-11-24T08:28:45.150Z,7.20
2023-11-24T08:30:50.395Z,9.00
2023-11-24T08:32:52.853Z,10.40
2023-11-24T08:34:55.541Z,10.30
2023-11-24T08:36:57.738Z,10.60
2023-11-24T08:41:04.050Z,11.90
2023-11-24T08:45:09.699Z,11.90
2023-11-24T08:47:13.730Z,12.20
2023-11-24T08:49:15.975Z,13.00
2023-11-24T08:53:21.318Z,13.50
2023-11-24T08:55:25.129Z,13.70
2023-11-24T08:57:28.227Z,13.50
2023-11-24T09:01:38.515Z,13.00
2023-11-24T09:03:41.280Z,12.40
2023-11-24T09:05:43.577Z,11.50
2023-11-24T09:09:48.700Z,10.10
2023-11-24T09:11:51.426Z,10.00
2023-11-24T09:15:59.192Z,8.40
2023-11-24T09:20:09.544Z,8.00
2023-11-24T09:22:11.936Z,7.50
2023-11-24T09:24:16.179Z,7.30
2023-11-24T09:26:18.320Z,7.10
2023-11-24T09:28:21.914Z,6.60
2023-11-24T09:32:27.136Z,6.50
2023-11-24T09:36:32.602Z,6.50
2023-11-24T09:38:37.736Z,6.30
2023-11-24T09:40:41.134Z,6.50
2023-11-24T09:42:47.658Z,5.90
2023-11-24T09:44:56.028Z,6.20
2023-11-24T09:46:59.049Z,6.00
2023-11-24T09:49:02.790Z,5.80
2023-11-24T09:51:07.453Z,5.70
2023-11-24T09:53:14.211Z,5.90
2023-11-24T09:55:16.513Z,5.70
2023-11-24T09:59:24.319Z,6.00
2023-11-24T10:01:28.288Z,5.90
2023-11-24T10:03:30.859Z,5.50
2023-11-24T10:09:39.993Z,5.90
2023-11-24T10:11:44.088Z,6.20
2023-11-24T10:13:50.011Z,6.40
2023-11-24T10:15:53.734Z,6.10
2023-11-24T10:17:57.642Z,6.30
2023-11-24T10:22:03.900Z,5.90
2023-11-24T10:24:08.611Z,6.00
2023-11-24T10:26:16.939Z,5.90
2023-11-24T10:30:22.542Z,6.00
2023-11-24T10:32:25.005Z,5.50
2023-11-24T10:36:31.611Z,5.30
2023-11-24T10:38:34.915Z,5.30
2023-11-24T10:40:39.360Z,5.30
2023-11-24T10:42:49.767Z,5.40
2023-11-24T10:45:03.642Z,6.00
2023-11-24T10:47:12.727Z,5.20
2023-11-24T10:49:35.987Z,5.00
2023-11-24T10:51:46.469Z,5.60
2023-11-24T10:53:57.991Z,5.30
2023-11-24T10:56:04.802Z,5.20
2023-11-24T10:58:07.742Z,4.90
2023-11-24T11:00:11.015Z,5.30
2023-11-24T11:02:17.882Z,5.10
2023-11-24T11:04:21.738Z,5.00
2023-11-24T11:06:41.431Z,5.50
2023-11-24T11:08:57.319Z,5.40
2023-11-24T11:11:13.486Z,5.00
2023-11-24T11:13:17.150Z,5.40
2023-11-24T11:15:29.829Z,5.50
2023-11-24T11:17:32.464Z,5.80
2023-11-24T11:21:40.378Z,5.50
2023-11-24T11:23:42.993Z,5.30
2023-11-24T11:25:52.527Z,5.60
2023-11-24T11:27:58.313Z,5.40
2023-11-24T11:30:00.849Z,5.50
2023-11-24T11:32:13.725Z,5.10
2023-11-24T11:34:18.358Z,5.10
2023-11-24T11:36:21.121Z,5.40
2023-11-24T11:38:46.935Z,5.20
2023-11-24T11:40:52.925Z,5.10
2023-11-24T11:43:06.759Z,5.10
2023-11-24T11:45:13.706Z,5.30
2023-11-24T11:47:28.379Z,5.00
2023-11-24T11:49:35.882Z,5.30
2023-11-24T11:51:41.137Z,5.20
2023-11-24T11:53:58.234Z,5.10
2023-11-24T11:56:02.117Z,5.20
2023-11-24T11:58:05.828Z,5.30
2023-11-24T12:00:10.462Z,5.10
2023-11-24T12:06:28.697Z,4.20
2023-11-24T12:08:31.132Z,4.10
2023-11-24T12:10:33.461Z,3.60
2023-11-24T12:12:35.912Z,3.40
2023-11-24T12:18:52.416Z,3.30
2023-11-24T12:20:56.191Z,3.50
2023-11-24T12:22:58.778Z,3.40
2023-11-24T12:27:05.770Z,3.90
2023-11-24T12:29:15.853Z,3.50
2023-11-24T12:31:18.835Z,3.60
2023-11-24T12:33:26.003Z,3.70
2023-11-24T12:35:28.776Z,3.50
2023-11-24T12:37:31.441Z,3.40
2023-11-24T12:39:35.442Z,3.50
2023-11-24T12:41:38.149Z,3.70
2023-11-24T12:43:43.431Z,3.90
2023-11-24T12:45:49.511Z,3.60
2023-11-24T12:47:51.942Z,3.70
2023-11-24T12:50:07.887Z,3.60
2023-11-24T12:52:14.068Z,3.70
2023-11-24T12:56:22.100Z,3.30
2023-11-24T12:58:24.576Z,3.50
2023-11-24T13:00:28.534Z,3.60
2023-11-24T13:02:31.735Z,3.60
2023-11-24T13:04:34.269Z,3.40
2023-11-24T13:06:36.761Z,2.80
2023-11-24T13:08:38.849Z,3.30
2023-11-24T13:10:42.048Z,3.00
2023-11-24T13:12:44.948Z,3.20
2023-11-24T13:14:47.607Z,2.70
2023-11-24T13:16:56.265Z,2.90
2023-11-24T13:19:00.279Z,3.00
2023-11-24T13:21:02.923Z,2.80
2023-11-24T13:23:05.689Z,2.80
2023-11-24T13:25:09.920Z,3.00
2023-11-24T13:27:14.191Z,2.90
2023-11-24T13:31:21.199Z,2.90
2023-11-24T13:33:23.408Z,3.30
2023-11-24T13:37:31.652Z,3.00
2023-11-24T13:39:35.618Z,3.00
2023-11-24T13:41:37.755Z,3.80
2023-11-24T13:43:41.582Z,3.10
2023-11-24T13:45:44.213Z,3.00
2023-11-24T13:47:46.854Z,3.20
2023-11-24T13:49:50.432Z,3.10
2023-11-24T13:51:56.282Z,3.10
2023-11-24T13:53:58.693Z,3.40
2023-11-24T13:58:05.034Z,2.90
2023-11-24T14:00:12.652Z,2.80
2023-11-24T14:02:16.589Z,3.20
2023-11-24T14:04:20.285Z,2.80
2023-11-24T14:08:26.252Z,2.70
2023-11-24T14:10:28.559Z,2.90
2023-11-24T14:12:31.281Z,2.70
2023-11-24T14:14:33.540Z,2.90
2023-11-24T14:18:38.678Z,2.40
2023-11-24T14:20:41.612Z,3.00
2023-11-24T14:22:43.972Z,3.00
2023-11-24T14:24:46.398Z,2.70
2023-11-24T14:26:48.524Z,2.80
2023-11-24T14:28:51.026Z,2.60
2023-11-24T14:30:53.330Z,2.90
2023-11-24T14:32:56.023Z,2.70
2023-11-24T14:34:58.278Z,2.60
2023-11-24T14:37:00.729Z,2.80
2023-11-24T14:41:08.945Z,2.60
2023-11-24T14:45:21.690Z,2.20
2023-11-24T14:49:28.950Z,2.50
2023-11-24T14:51:34.164Z,2.20
2023-11-24T14:53:38.196Z,2.20
2023-11-24T14:57:46.640Z,2.20
2023-11-24T14:59:54.838Z,2.30
2023-11-24T15:02:01.272Z,2.00
2023-11-24T15:06:11.885Z,2.30
2023-11-24T15:08:18.141Z,2.40
2023-11-24T15:10:22.086Z,2.20
2023-11-24T15:12:28.267Z,2.20
2023-11-24T15:14:34.209Z,2.40
2023-11-24T15:16:46.055Z,2.10
2023-11-24T15:18:51.750Z,2.20
2023-11-24T15:20:55.036Z,2.30
2023-11-24T15:22:59.669Z,2.50
2023-11-24T15:25:02.234Z,1.90
2023-11-24T15:27:07.794Z,2.30
2023-11-24T15:31:42.996Z,2.10
2023-11-24T15:33:58.947Z,1.80
2023-11-24T15:36:03.594Z,2.00
2023-11-24T15:40:13.391Z,2.20
2023-11-24T15:42:18.333Z,2.10
2023-11-24T15:44:26.562Z,2.10
2023-11-24T15:46:34.425Z,2.40
2023-11-24T15:48:37.267Z,2.00
2023-11-24T15:50:39.852Z,2.00
2023-11-24T15:52:45.378Z,2.40
2023-11-24T15:54:47.617Z,2.30
2023-11-24T15:56:53.410Z,2.00
2023-11-24T15:59:06.379Z,2.30
2023-11-24T16:05:19.367Z,2.30
2023-11-24T16:09:29.605Z,2.10
2023-11-24T16:11:33.246Z,2.10
2023-11-24T16:13:37.916Z,2.30
2023-11-24T16:15:43.092Z,2.20
2023-11-24T16:17:51.499Z,2.50
2023-11-24T16:19:56.048Z,2.40
2023-11-24T16:21:58.688Z,2.30
2023-11-24T16:26:03.865Z,2.60
2023-11-24T16:28:06.147Z,3.10
2023-11-24T16:30:10.477Z,2.50
2023-11-24T16:32:12.766Z,2.80
2023-11-24T16:34:17.012Z,2.50
2023-11-24T16:36:19.656Z,2.70
2023-11-24T16:38:22.256Z,3.50
2023-11-24T16:40:24.438Z,2.60
2023-11-24T16:42:26.891Z,2.70
2023-11-24T16:44:32.931Z,2.70
2023-11-24T16:46:36.526Z,2.50
2023-11-24T16:48:42.192Z,2.70
2023-11-24T16:50:44.662Z,2.70
2023-11-24T16:52:47.861Z,2.80
2023-11-24T16:58:58.030Z,2.40
2023-11-24T17:03:04.713Z,2.70
2023-11-24T17:05:07.422Z,-0.70
2023-11-24T17:07:10.050Z,2.80
2023-11-24T17:09:16.730Z,2.60
2023-11-24T17:11:19.686Z,2.80
2023-11-24T17:13:21.923Z,2.70
2023-11-24T17:15:24.523Z,2.70
2023-11-24T17:17:26.858Z,2.80
2023-11-24T17:19:31.952Z,2.60
2023-11-24T17:21:34.144Z,2.70
2023-11-24T17:23:42.348Z,2.70
2023-11-24T17:27:50.411Z,2.50
2023-11-24T17:29:52.624Z,2.70
2023-11-24T17:31:56.826Z,2.70
2023-11-24T17:36:04.395Z,2.60
2023-11-24T17:40:10.648Z,2.90
2023-11-24T17:42:12.876Z,2.70
2023-11-24T17:44:17.277Z,2.70
2023-11-24T17:52:29.597Z,2.40
2023-11-24T17:54:32.530Z,2.40
2023-11-24T17:56:35.060Z,2.70
2023-11-24T17:58:37.394Z,2.70
2023-11-24T18:00:41.442Z,2.70
2023-11-24T18:02:43.946Z,2.60
2023-11-24T18:04:46.419Z,2.50
2023-11-24T18:06:48.539Z,2.60
2023-11-24T18:08:55.908Z,2.30
2023-11-24T18:10:58.238Z,2.20
2023-11-24T18:15:05.560Z,2.40
2023-11-24T18:17:08.289Z,2.40
2023-11-24T18:19:10.599Z,2.30
2023-11-24T18:21:14.780Z,2.30
2023-11-24T18:23:16.992Z,2.60
2023-11-24T18:25:20.869Z,2.70
2023-11-24T18:27:25.288Z,2.60
2023-11-24T18:29:29.053Z,2.80
2023-11-24T18:31:32.185Z,2.50
2023-11-24T18:33:34.763Z,2.60
2023-11-24T18:35:40.633Z,2.50
2023-11-24T18:37:44.221Z,2.30
2023-11-24T18:39:48.657Z,2.60
2023-11-24T18:41:53.774Z,2.30
2023-11-24T18:43:57.140Z,2.30
2023-11-24T18:46:02.416Z,2.10
2023-11-24T18:48:05.875Z,2.60
2023-11-24T18:50:09.073Z,2.60
2023-11-24T18:54:15.660Z,2.60
2023-11-24T18:56:22.082Z,2.40
2023-11-24T18:58:25.839Z,2.50
2023-11-24T19:02:33.414Z,2.60
2023-11-24T19:04:35.891Z,2.80
2023-11-24T19:08:42.647Z,2.70
2023-11-24T19:10:45.654Z,2.50
2023-11-24T19:14:55.389Z,2.80
2023-11-24T19:19:01.150Z,2.40
2023-11-24T19:21:08.664Z,2.30
2023-11-24T19:23:11.250Z,2.30
2023-11-24T19:25:13.728Z,2.10
2023-11-24T19:27:16.375Z,1.80
2023-11-24T19:29:18.633Z,2.10
2023-11-24T19:31:21.545Z,2.10
2023-11-24T19:33:23.826Z,2.00
2023-11-24T19:37:29.088Z,2.00
2023-11-24T19:41:34.545Z,1.60
2023-11-24T19:43:37.253Z,1.60
2023-11-24T19:45:39.738Z,1.90
2023-11-24T19:47:42.309Z,1.70
2023-11-24T19:51:49.935Z,2.30
2023-11-24T19:53:54.327Z,1.60
2023-11-24T19:55:57.033Z,1.80
2023-11-24T20:00:02.479Z,2.00
2023-11-24T20:02:06.220Z,1.50
2023-11-24T20:06:11.732Z,1.50
2023-11-24T20:08:14.177Z,1.80
2023-11-24T20:10:16.413Z,1.20
2023-11-24T20:12:19.013Z,1.50
2023-11-24T20:16:25.032Z,1.40
2023-11-24T20:18:27.261Z,1.50
2023-11-24T20:20:32.326Z,0.90
2023-11-24T20:22:34.550Z,1.50
2023-11-24T20:24:37.634Z,1.30
2023-11-24T20:26:41.339Z,1.30
2023-11-24T20:30:49.983Z,1.20
2023-11-24T20:32:54.256Z,1.20
2023-11-24T20:34:56.557Z,1.50
2023-11-24T20:36:59.201Z,1.20
2023-11-24T20:39:01.624Z,0.80
2023-11-24T20:41:04.333Z,1.10
2023-11-24T20:43:07.494Z,1.10
2023-11-24T20:45:13.341Z,1.10
2023-11-24T20:47:15.781Z,1.20
2023-11-24T20:49:19.718Z,1.00
2023-11-24T20:53:24.726Z,0.80
2023-11-24T20:55:28.106Z,1.00
2023-11-24T20:57:32.743Z,1.10
2023-11-24T20:59:35.391Z,1.10
2023-11-24T21:01:38.062Z,1.00
2023-11-24T21:03:40.950Z,0.90
2023-11-24T21:09:56.404Z,0.60
2023-11-24T21:14:01.567Z,0.60
2023-11-24T21:16:04.060Z,0.80
2023-11-24T21:18:07.498Z,1.10
2023-11-24T21:20:11.441Z,0.50
2023-11-24T21:22:15.349Z,0.70
2023-11-24T21:24:17.802Z,0.80
2023-11-24T21:26:21.606Z,0.60
2023-11-24T21:28:24.153Z,0.70
2023-11-24T21:30:28.968Z,0.70
2023-11-24T21:34:38.371Z,0.60
2023-11-24T21:36:40.499Z,0.70
2023-11-24T21:38:45.953Z,0.40
2023-11-24T21:40:49.339Z,0.50
2023-11-24T21:42:54.774Z,0.70
2023-11-24T21:47:01.788Z,0.80
2023-11-24T21:49:05.024Z,1.30
2023-11-24T21:51:07.915Z,0.60
2023-11-24T21:53:10.110Z,0.40
2023-11-24T21:55:12.697Z,0.60
2023-11-24T21:57:14.923Z,0.60
2023-11-24T21:59:17.361Z,0.60
2023-11-24T22:01:23.676Z,0.70
2023-11-24T22:03:26.321Z,0.60
2023-11-24T22:07:34.801Z,0.60
2023-11-24T22:11:40.862Z,0.40
2023-11-24T22:13:43.039Z,0.70
2023-11-24T22:15:48.946Z,0.50
2023-11-24T22:17:51.194Z,0.80
2023-11-24T22:19:53.620Z,1.00
2023-11-24T22:21:55.834Z,1.50
2023-11-24T22:24:01.181Z,1.00
2023-11-24T22:28:06.399Z,0.60
2023-11-24T22:30:08.855Z,1.10
2023-11-24T22:36:20.895Z,0.80
2023-11-24T22:38:23.285Z,1.00
2023-11-24T22:40:25.753Z,1.00
2023-11-24T22:42:28.123Z,0.60
2023-11-24T22:44:30.610Z,1.20
2023-11-24T22:46:34.123Z,0.90
2023-11-24T22:48:36.988Z,1.10
2023-11-24T22:50:39.257Z,1.00
2023-11-24T22:52:41.822Z,1.50
2023-11-24T22:54:44.030Z,0.60
2023-11-24T22:56:46.511Z,1.20
2023-11-24T22:58:52.880Z,0.90
2023-11-24T23:01:00.338Z,1.00
2023-11-24T23:03:03.271Z,0.80
2023-11-24T23:05:06.682Z,1.20
2023-11-24T23:07:09.228Z,1.00
2023-11-24T23:09:13.641Z,2.00
2023-11-24T23:11:19.552Z,1.00
2023-11-24T23:13:22.838Z,0.90
2023-11-24T23:15:25.806Z,1.20
2023-11-24T23:19:30.988Z,1.10
2023-11-24T23:21:33.568Z,1.10
2023-11-24T23:23:36.219Z,1.30
2023-11-24T23:25:38.741Z,1.10
2023-11-24T23:27:41.134Z,1.30
2023-11-24T23:29:46.500Z,1.40
2023-11-24T23:31:49.381Z,1.10
2023-11-24T23:33:52.234Z,1.10
2023-11-24T23:35:54.429Z,1.40
2023-11-24T23:37:57.010Z,1.20
2023-11-24T23:39:59.252Z,1.30
2023-11-24T23:42:02.564Z,1.30
2023-11-24T23:44:05.823Z,0.90
2023-11-24T23:46:08.994Z,1.60
2023-11-24T23:48:12.648Z,1.40
2023-11-24T23:50:15.880Z,1.10
2023-11-24T23:54:20.971Z,1.10
2023-11-24T23:56:23.384Z,1.40
2023-11-24T23:58:27.204Z,1.50
